sensor_id;sensor_type;location;lat;lon;timestamp;pressure;altitude;pressure_sealevel;temperature;humidity
44313;BME280;38833;51.142;-0.974;2024-02-26T00:00:35;97891.46;;;27.48;25.66
44313;BME280;38833;51.142;-0.974;2024-02-26T00:03:09;97895.20;;;27.76;25.63
44313;BME280;38833;51.142;-0.974;2024-02-26T00:05:42;97896.92;;;27.68;25.68
44313;BME280;38833;51.142;-0.974;2024-02-26T00:08:15;97908.56;;;27.67;25.68
44313;BME280;38833;51.142;-0.974;2024-02-26T00:10:49;97911.76;;;27.50;25.80
44313;BME280;38833;51.142;-0.974;2024-02-26T00:13:22;97916.02;;;27.23;25.78
44313;BME280;38833;51.142;-0.974;2024-02-26T00:15:56;97916.66;;;27.23;25.78
44313;BME280;38833;51.142;-0.974;2024-02-26T00:18:29;97916.78;;;27.12;25.82
44313;BME280;38833;51.142;-0.974;2024-02-26T00:21:03;97931.12;;;27.70;25.73
44313;BME280;38833;51.142;-0.974;2024-02-26T00:23:36;97926.14;;;27.35;25.81
44313;BME280;38833;51.142;-0.974;2024-02-26T00:26:09;97930.86;;;27.56;25.84
44313;BME280;38833;51.142;-0.974;2024-02-26T00:28:43;97935.63;;;27.53;25.84
44313;BME280;38833;51.142;-0.974;2024-02-26T00:31:16;97936.12;;;27.46;25.89
44313;BME280;38833;51.142;-0.974;2024-02-26T00:33:50;97946.03;;;27.17;25.91
44313;BME280;38833;51.142;-0.974;2024-02-26T00:36:23;97960.12;;;27.36;25.94
44313;BME280;38833;51.142;-0.974;2024-02-26T00:38:57;97956.54;;;27.21;26.02
44313;BME280;38833;51.142;-0.974;2024-02-26T00:41:30;97970.06;;;26.94;26.03
44313;BME280;38833;51.142;-0.974;2024-02-26T00:44:04;97965.54;;;27.17;26.05
44313;BME280;38833;51.142;-0.974;2024-02-26T00:46:37;97978.07;;;26.94;26.05
44313;BME280;38833;51.142;-0.974;2024-02-26T00:49:10;97981.55;;;27.15;26.03
44313;BME280;38833;51.142;-0.974;2024-02-26T00:51:43;97985.97;;;26.97;26.16
44313;BME280;38833;51.142;-0.974;2024-02-26T00:54:17;97998.11;;;27.05;26.06
44313;BME280;38833;51.142;-0.974;2024-02-26T00:56:50;97989.41;;;27.14;25.95
44313;BME280;38833;51.142;-0.974;2024-02-26T00:59:23;98001.93;;;26.88;26.18
44313;BME280;38833;51.142;-0.974;2024-02-26T01:01:57;98003.46;;;26.63;26.18
44313;BME280;38833;51.142;-0.974;2024-02-26T01:04:30;98013.64;;;26.96;26.09
44313;BME280;38833;51.142;-0.974;2024-02-26T01:07:03;98024.21;;;26.90;26.14
44313;BME280;38833;51.142;-0.974;2024-02-26T01:09:36;98021.08;;;27.03;26.18
44313;BME280;38833;51.142;-0.974;2024-02-26T01:12:10;98023.78;;;26.69;26.25
44313;BME280;38833;51.142;-0.974;2024-02-26T01:14:43;98031.40;;;26.67;26.26
44313;BME280;38833;51.142;-0.974;2024-02-26T01:17:16;98025.90;;;26.70;26.24
44313;BME280;38833;51.142;-0.974;2024-02-26T01:19:49;98036.63;;;26.82;26.10
44313;BME280;38833;51.142;-0.974;2024-02-26T01:22:23;98047.70;;;26.70;26.18
44313;BME280;38833;51.142;-0.974;2024-02-26T01:24:56;98048.25;;;26.66;26.17
44313;BME280;38833;51.142;-0.974;2024-02-26T01:27:29;98055.21;;;26.63;26.21
44313;BME280;38833;51.142;-0.974;2024-02-26T01:30:03;98051.91;;;26.66;26.15
44313;BME280;38833;51.142;-0.974;2024-02-26T01:32:36;98067.36;;;26.53;26.24
44313;BME280;38833;51.142;-0.974;2024-02-26T01:35:10;98068.51;;;26.76;26.20
44313;BME280;38833;51.142;-0.974;2024-02-26T01:37:43;98083.05;;;26.52;26.19
44313;BME280;38833;51.142;-0.974;2024-02-26T01:40:16;98081.95;;;26.50;26.42
44313;BME280;38833;51.142;-0.974;2024-02-26T01:42:52;98085.34;;;26.22;26.45
44313;BME280;38833;51.142;-0.974;2024-02-26T01:45:26;98098.16;;;26.23;26.42
44313;BME280;38833;51.142;-0.974;2024-02-26T01:47:59;98102.99;;;26.20;26.45
44313;BME280;38833;51.142;-0.974;2024-02-26T01:50:33;98107.41;;;26.09;26.50
44313;BME280;38833;51.142;-0.974;2024-02-26T01:53:07;98112.83;;;26.11;26.47
44313;BME280;38833;51.142;-0.974;2024-02-26T01:55:41;98115.68;;;26.29;26.50
44313;BME280;38833;51.142;-0.974;2024-02-26T01:58:14;98130.07;;;26.20;26.56
44313;BME280;38833;51.142;-0.974;2024-02-26T02:00:49;98124.80;;;26.10;26.64
44313;BME280;38833;51.142;-0.974;2024-02-26T02:03:23;98128.61;;;26.11;26.60
44313;BME280;38833;51.142;-0.974;2024-02-26T02:05:56;98134.39;;;26.32;26.65
44313;BME280;38833;51.142;-0.974;2024-02-26T02:08:30;98142.78;;;26.09;26.59
44313;BME280;38833;51.142;-0.974;2024-02-26T02:11:03;98152.27;;;26.03;26.63
44313;BME280;38833;51.142;-0.974;2024-02-26T02:13:37;98159.46;;;26.20;26.71
44313;BME280;38833;51.142;-0.974;2024-02-26T02:16:10;98156.77;;;25.67;26.71
44313;BME280;38833;51.142;-0.974;2024-02-26T02:18:43;98154.82;;;25.90;26.69
44313;BME280;38833;51.142;-0.974;2024-02-26T02:21:17;98168.62;;;26.17;26.67
44313;BME280;38833;51.142;-0.974;2024-02-26T02:23:50;98165.81;;;25.90;26.65
44313;BME280;38833;51.142;-0.974;2024-02-26T02:26:23;98173.51;;;25.59;26.71
44313;BME280;38833;51.142;-0.974;2024-02-26T02:28:57;98173.10;;;25.82;26.69
44313;BME280;38833;51.142;-0.974;2024-02-26T02:31:31;98188.12;;;25.79;26.68
44313;BME280;38833;51.142;-0.974;2024-02-26T02:34:05;98186.87;;;25.99;26.74
44313;BME280;38833;51.142;-0.974;2024-02-26T02:36:49;98194.29;;;26.03;26.71
44313;BME280;38833;51.142;-0.974;2024-02-26T02:39:22;98196.27;;;25.92;26.76
44313;BME280;38833;51.142;-0.974;2024-02-26T02:41:56;98209.52;;;25.94;26.72
44313;BME280;38833;51.142;-0.974;2024-02-26T02:44:29;98208.42;;;25.54;26.83
44313;BME280;38833;51.142;-0.974;2024-02-26T02:47:03;98219.33;;;25.83;26.79
44313;BME280;38833;51.142;-0.974;2024-02-26T02:49:36;98215.65;;;25.48;26.85
44313;BME280;38833;51.142;-0.974;2024-02-26T02:52:09;98228.34;;;25.80;26.79
44313;BME280;38833;51.142;-0.974;2024-02-26T02:54:43;98231.66;;;25.77;26.78
44313;BME280;38833;51.142;-0.974;2024-02-26T02:57:16;98226.71;;;25.40;26.87
44313;BME280;38833;51.142;-0.974;2024-02-26T02:59:49;98239.60;;;25.71;26.82
44313;BME280;38833;51.142;-0.974;2024-02-26T03:02:23;98239.44;;;25.57;26.93
44313;BME280;38833;51.142;-0.974;2024-02-26T03:04:56;98240.65;;;25.57;26.90
44313;BME280;38833;51.142;-0.974;2024-02-26T03:07:29;98251.81;;;25.53;26.92
44313;BME280;38833;51.142;-0.974;2024-02-26T03:10:03;98253.49;;;25.49;26.92
44313;BME280;38833;51.142;-0.974;2024-02-26T03:12:36;98265.83;;;25.53;26.90
44313;BME280;38833;51.142;-0.974;2024-02-26T03:15:10;98270.02;;;25.50;26.90
44313;BME280;38833;51.142;-0.974;2024-02-26T03:17:43;98278.69;;;25.42;26.96
44313;BME280;38833;51.142;-0.974;2024-02-26T03:20:16;98274.43;;;25.39;26.96
44313;BME280;38833;51.142;-0.974;2024-02-26T03:22:50;98289.89;;;25.41;26.93
44313;BME280;38833;51.142;-0.974;2024-02-26T03:25:23;98292.21;;;25.35;26.96
44313;BME280;38833;51.142;-0.974;2024-02-26T03:27:56;98299.85;;;25.36;26.90
44313;BME280;38833;51.142;-0.974;2024-02-26T03:30:30;98305.36;;;25.32;26.94
44313;BME280;38833;51.142;-0.974;2024-02-26T03:33:03;98305.23;;;25.27;26.97
44313;BME280;38833;51.142;-0.974;2024-02-26T03:35:36;98320.83;;;25.26;26.96
44313;BME280;38833;51.142;-0.974;2024-02-26T03:38:09;98318.67;;;25.19;27.01
44313;BME280;38833;51.142;-0.974;2024-02-26T03:40:43;98317.72;;;25.19;26.95
44313;BME280;38833;51.142;-0.974;2024-02-26T03:43:16;98325.95;;;25.07;27.06
44313;BME280;38833;51.142;-0.974;2024-02-26T03:45:50;98325.16;;;25.11;27.01
44313;BME280;38833;51.142;-0.974;2024-02-26T03:48:23;98331.08;;;25.16;26.94
44313;BME280;38833;51.142;-0.974;2024-02-26T03:50:56;98342.29;;;25.10;26.99
44313;BME280;38833;51.142;-0.974;2024-02-26T03:53:30;98348.84;;;25.08;27.00
44313;BME280;38833;51.142;-0.974;2024-02-26T03:56:04;98358.09;;;24.98;27.05
44313;BME280;38833;51.142;-0.974;2024-02-26T03:58:37;98353.76;;;25.00;27.05
44313;BME280;38833;51.142;-0.974;2024-02-26T04:01:10;98356.80;;;24.94;27.09
44313;BME280;38833;51.142;-0.974;2024-02-26T04:03:44;98371.93;;;24.93;27.10
44313;BME280;38833;51.142;-0.974;2024-02-26T04:06:17;98377.44;;;25.07;27.11
44313;BME280;38833;51.142;-0.974;2024-02-26T04:08:50;98379.21;;;25.08;27.07
44313;BME280;38833;51.142;-0.974;2024-02-26T04:11:24;98382.60;;;24.91;27.04
44313;BME280;38833;51.142;-0.974;2024-02-26T04:13:57;98389.79;;;25.01;27.16
44313;BME280;38833;51.142;-0.974;2024-02-26T04:16:30;98387.07;;;24.95;27.15
44313;BME280;38833;51.142;-0.974;2024-02-26T04:19:03;98401.18;;;25.19;27.13
44313;BME280;38833;51.142;-0.974;2024-02-26T04:21:37;98399.79;;;24.92;27.14
44313;BME280;38833;51.142;-0.974;2024-02-26T04:24:11;98413.06;;;25.14;27.16
44313;BME280;38833;51.142;-0.974;2024-02-26T04:26:44;98423.11;;;24.66;27.16
44313;BME280;38833;51.142;-0.974;2024-02-26T04:29:17;98428.35;;;24.80;27.20
44313;BME280;38833;51.142;-0.974;2024-02-26T04:31:51;98436.93;;;24.81;27.20
44313;BME280;38833;51.142;-0.974;2024-02-26T04:34:24;98435.03;;;24.96;27.24
44313;BME280;38833;51.142;-0.974;2024-02-26T04:36:57;98444.76;;;24.80;27.19
44313;BME280;38833;51.142;-0.974;2024-02-26T04:39:30;98458.87;;;24.88;27.26
44313;BME280;38833;51.142;-0.974;2024-02-26T04:42:04;98461.74;;;25.01;27.17
44313;BME280;38833;51.142;-0.974;2024-02-26T04:44:37;98459.30;;;24.72;27.18
44313;BME280;38833;51.142;-0.974;2024-02-26T04:47:11;98469.42;;;24.84;27.27
44313;BME280;38833;51.142;-0.974;2024-02-26T04:49:44;98484.01;;;24.58;27.28
44313;BME280;38833;51.142;-0.974;2024-02-26T04:52:18;98488.24;;;24.66;27.22
44313;BME280;38833;51.142;-0.974;2024-02-26T04:54:51;98498.65;;;24.79;27.27
44313;BME280;38833;51.142;-0.974;2024-02-26T04:57:25;98505.41;;;24.79;27.24
44313;BME280;38833;51.142;-0.974;2024-02-26T04:59:58;98518.25;;;24.75;27.27
44313;BME280;38833;51.142;-0.974;2024-02-26T05:02:32;98515.29;;;24.69;27.29
44313;BME280;38833;51.142;-0.974;2024-02-26T05:05:05;98517.49;;;24.61;27.35
44313;BME280;38833;51.142;-0.974;2024-02-26T05:07:40;98525.24;;;24.52;27.42
44313;BME280;38833;51.142;-0.974;2024-02-26T05:10:14;98519.98;;;24.62;27.32
44313;BME280;38833;51.142;-0.974;2024-02-26T05:12:47;98533.44;;;24.58;27.37
44313;BME280;38833;51.142;-0.974;2024-02-26T05:15:20;98540.49;;;24.54;27.35
44313;BME280;38833;51.142;-0.974;2024-02-26T05:17:54;98540.19;;;24.49;27.41
44313;BME280;38833;51.142;-0.974;2024-02-26T05:20:27;98546.71;;;24.51;27.33
44313;BME280;38833;51.142;-0.974;2024-02-26T05:23:00;98555.61;;;24.48;27.34
44313;BME280;38833;51.142;-0.974;2024-02-26T05:25:34;98563.84;;;24.41;27.41
44313;BME280;38833;51.142;-0.974;2024-02-26T05:28:07;98571.11;;;24.41;27.39
44313;BME280;38833;51.142;-0.974;2024-02-26T05:30:41;98579.38;;;24.42;27.41
44313;BME280;38833;51.142;-0.974;2024-02-26T05:33:14;98587.36;;;24.32;27.43
44313;BME280;38833;51.142;-0.974;2024-02-26T05:35:48;98591.43;;;24.38;27.35
44313;BME280;38833;51.142;-0.974;2024-02-26T05:38:21;98590.60;;;24.26;27.44
44313;BME280;38833;51.142;-0.974;2024-02-26T05:40:54;98598.40;;;24.32;27.37
44313;BME280;38833;51.142;-0.974;2024-02-26T05:43:28;98613.77;;;24.28;27.39
44313;BME280;38833;51.142;-0.974;2024-02-26T05:46:01;98611.34;;;24.35;27.62
44313;BME280;38833;51.142;-0.974;2024-02-26T05:48:34;98620.96;;;23.76;27.98
44313;BME280;38833;51.142;-0.974;2024-02-26T05:51:08;98628.00;;;23.93;27.90
44313;BME280;38833;51.142;-0.974;2024-02-26T05:53:42;98630.54;;;23.83;28.02
44313;BME280;38833;51.142;-0.974;2024-02-26T05:56:15;98646.70;;;24.10;27.81
44313;BME280;38833;51.142;-0.974;2024-02-26T05:58:49;98645.88;;;24.44;27.60
44313;BME280;38833;51.142;-0.974;2024-02-26T06:01:22;98658.99;;;24.51;27.86
44313;BME280;38833;51.142;-0.974;2024-02-26T06:03:55;98661.08;;;24.04;28.12
44313;BME280;38833;51.142;-0.974;2024-02-26T06:06:29;98671.28;;;24.31;27.72
44313;BME280;38833;51.142;-0.974;2024-02-26T06:09:02;98665.74;;;24.57;27.77
44313;BME280;38833;51.142;-0.974;2024-02-26T06:11:35;98670.44;;;25.00;27.70
44313;BME280;38833;51.142;-0.974;2024-02-26T06:14:09;98684.23;;;24.55;27.95
44313;BME280;38833;51.142;-0.974;2024-02-26T06:16:42;98691.26;;;24.96;27.56
44313;BME280;38833;51.142;-0.974;2024-02-26T06:19:15;98695.34;;;24.59;27.75
44313;BME280;38833;51.142;-0.974;2024-02-26T06:21:48;98699.52;;;24.79;27.45
44313;BME280;38833;51.142;-0.974;2024-02-26T06:24:22;98715.25;;;25.26;27.25
44313;BME280;38833;51.142;-0.974;2024-02-26T06:26:55;98715.36;;;25.15;27.19
44313;BME280;38833;51.142;-0.974;2024-02-26T06:29:28;98719.79;;;25.13;27.24
44313;BME280;38833;51.142;-0.974;2024-02-26T06:32:02;98728.59;;;25.14;27.30
44313;BME280;38833;51.142;-0.974;2024-02-26T06:34:35;98735.62;;;24.76;27.46
44313;BME280;38833;51.142;-0.974;2024-02-26T06:37:08;98742.48;;;24.94;27.32
44313;BME280;38833;51.142;-0.974;2024-02-26T06:39:42;98745.91;;;25.68;26.94
44313;BME280;38833;51.142;-0.974;2024-02-26T06:42:15;98756.93;;;25.79;26.87
44313;BME280;38833;51.142;-0.974;2024-02-26T06:44:48;98768.40;;;25.57;27.12
44313;BME280;38833;51.142;-0.974;2024-02-26T06:47:22;98768.92;;;25.69;26.78
44313;BME280;38833;51.142;-0.974;2024-02-26T06:49:55;98785.51;;;25.76;26.75
44313;BME280;38833;51.142;-0.974;2024-02-26T06:52:28;98790.21;;;25.63;26.90
44313;BME280;38833;51.142;-0.974;2024-02-26T06:55:01;98797.72;;;25.70;26.88
44313;BME280;38833;51.142;-0.974;2024-02-26T06:57:35;98809.43;;;25.79;26.82
44313;BME280;38833;51.142;-0.974;2024-02-26T07:00:09;98815.59;;;25.54;26.90
44313;BME280;38833;51.142;-0.974;2024-02-26T07:02:42;98831.05;;;25.60;27.09
44313;BME280;38833;51.142;-0.974;2024-02-26T07:05:16;98830.77;;;25.88;26.84
44313;BME280;38833;51.142;-0.974;2024-02-26T07:07:49;98835.70;;;25.62;26.85
44313;BME280;38833;51.142;-0.974;2024-02-26T07:10:22;98842.96;;;25.94;26.61
44313;BME280;38833;51.142;-0.974;2024-02-26T07:12:55;98849.27;;;26.02;26.56
44313;BME280;38833;51.142;-0.974;2024-02-26T07:15:29;98860.25;;;25.68;26.88
44313;BME280;38833;51.142;-0.974;2024-02-26T07:18:03;98865.54;;;25.76;26.83
44313;BME280;38833;51.142;-0.974;2024-02-26T07:20:37;98870.89;;;25.99;26.64
44313;BME280;38833;51.142;-0.974;2024-02-26T07:23:10;98870.68;;;25.67;26.94
44313;BME280;38833;51.142;-0.974;2024-02-26T07:25:43;98886.19;;;25.77;26.85
44313;BME280;38833;51.142;-0.974;2024-02-26T07:28:17;98909.05;;;26.08;26.82
44313;BME280;38833;51.142;-0.974;2024-02-26T07:30:50;98895.90;;;26.23;26.51
44313;BME280;38833;51.142;-0.974;2024-02-26T07:33:23;98906.89;;;25.89;26.71
44313;BME280;38833;51.142;-0.974;2024-02-26T07:35:57;98911.01;;;25.95;26.79
44313;BME280;38833;51.142;-0.974;2024-02-26T07:38:30;98917.87;;;26.14;26.61
44313;BME280;38833;51.142;-0.974;2024-02-26T07:41:04;98919.19;;;26.03;26.56
44313;BME280;38833;51.142;-0.974;2024-02-26T07:43:37;98929.92;;;26.47;26.39
44313;BME280;38833;51.142;-0.974;2024-02-26T07:46:11;98941.56;;;26.08;26.73
44313;BME280;38833;51.142;-0.974;2024-02-26T07:48:45;98944.52;;;26.19;26.65
44313;BME280;38833;51.142;-0.974;2024-02-26T07:51:18;98944.82;;;26.25;26.64
44313;BME280;38833;51.142;-0.974;2024-02-26T07:53:51;98953.49;;;26.26;26.63
44313;BME280;38833;51.142;-0.974;2024-02-26T07:56:24;98960.27;;;26.25;26.45
44313;BME280;38833;51.142;-0.974;2024-02-26T07:58:57;98976.80;;;26.17;26.71
44313;BME280;38833;51.142;-0.974;2024-02-26T08:01:31;98966.55;;;26.24;26.72
44313;BME280;38833;51.142;-0.974;2024-02-26T08:04:04;98987.50;;;26.18;26.76
44313;BME280;38833;51.142;-0.974;2024-02-26T08:06:38;98981.44;;;26.53;26.49
44313;BME280;38833;51.142;-0.974;2024-02-26T08:09:11;98997.84;;;26.57;26.44
44313;BME280;38833;51.142;-0.974;2024-02-26T08:11:44;99002.05;;;26.31;26.47
44313;BME280;38833;51.142;-0.974;2024-02-26T08:14:18;99001.51;;;26.32;26.47
44313;BME280;38833;51.142;-0.974;2024-02-26T08:16:51;99014.33;;;26.67;26.39
44313;BME280;38833;51.142;-0.974;2024-02-26T08:19:24;99007.35;;;26.26;26.54
44313;BME280;38833;51.142;-0.974;2024-02-26T08:21:57;99021.48;;;25.82;26.96
44313;BME280;38833;51.142;-0.974;2024-02-26T08:24:31;99031.15;;;25.69;27.09
44313;BME280;38833;51.142;-0.974;2024-02-26T08:27:04;99033.77;;;25.73;27.27
44313;BME280;38833;51.142;-0.974;2024-02-26T08:29:38;99037.23;;;25.34;27.68
44313;BME280;38833;51.142;-0.974;2024-02-26T08:32:11;99040.96;;;25.44;27.59
44313;BME280;38833;51.142;-0.974;2024-02-26T08:34:44;99040.12;;;25.44;27.83
44313;BME280;38833;51.142;-0.974;2024-02-26T08:37:17;99053.51;;;25.22;27.80
44313;BME280;38833;51.142;-0.974;2024-02-26T08:39:51;99049.34;;;25.24;27.76
44313;BME280;38833;51.142;-0.974;2024-02-26T08:42:24;99068.31;;;24.97;28.04
44313;BME280;38833;51.142;-0.974;2024-02-26T08:44:58;99068.08;;;25.10;27.66
44313;BME280;38833;51.142;-0.974;2024-02-26T08:47:31;99071.10;;;25.40;27.58
44313;BME280;38833;51.142;-0.974;2024-02-26T08:50:05;99061.46;;;25.24;27.47
44313;BME280;38833;51.142;-0.974;2024-02-26T08:52:39;99067.92;;;26.87;26.21
44313;BME280;38833;51.142;-0.974;2024-02-26T08:55:12;99077.67;;;27.09;25.05
44313;BME280;38833;51.142;-0.974;2024-02-26T08:57:46;99084.24;;;27.26;24.64
44313;BME280;38833;51.142;-0.974;2024-02-26T09:00:20;99082.63;;;27.29;24.51
44313;BME280;38833;51.142;-0.974;2024-02-26T09:02:54;99092.22;;;27.46;24.10
44313;BME280;38833;51.142;-0.974;2024-02-26T09:05:27;99079.48;;;27.23;24.49
44313;BME280;38833;51.142;-0.974;2024-02-26T09:08:00;99094.39;;;27.08;24.57
44313;BME280;38833;51.142;-0.974;2024-02-26T09:10:33;99097.60;;;27.33;24.50
44313;BME280;38833;51.142;-0.974;2024-02-26T09:13:07;99102.66;;;27.15;24.35
44313;BME280;38833;51.142;-0.974;2024-02-26T09:15:40;99109.06;;;27.05;24.35
44313;BME280;38833;51.142;-0.974;2024-02-26T09:18:13;99118.26;;;27.03;24.44
44313;BME280;38833;51.142;-0.974;2024-02-26T09:20:47;99127.84;;;27.14;24.54
44313;BME280;38833;51.142;-0.974;2024-02-26T09:23:20;99136.13;;;26.88;24.49
44313;BME280;38833;51.142;-0.974;2024-02-26T09:25:53;99144.48;;;26.92;24.40
44313;BME280;38833;51.142;-0.974;2024-02-26T09:28:27;99151.61;;;27.13;24.50
44313;BME280;38833;51.142;-0.974;2024-02-26T09:31:00;99143.15;;;27.11;24.40
44313;BME280;38833;51.142;-0.974;2024-02-26T09:33:34;99158.71;;;26.88;24.28
44313;BME280;38833;51.142;-0.974;2024-02-26T09:36:07;99173.62;;;26.85;24.24
44313;BME280;38833;51.142;-0.974;2024-02-26T09:38:41;99168.00;;;26.81;24.19
44313;BME280;38833;51.142;-0.974;2024-02-26T09:41:15;99177.25;;;26.68;24.34
44313;BME280;38833;51.142;-0.974;2024-02-26T09:43:49;99182.84;;;26.98;24.15
44313;BME280;38833;51.142;-0.974;2024-02-26T09:46:26;99178.71;;;26.74;24.08
44313;BME280;38833;51.142;-0.974;2024-02-26T09:49:00;99188.94;;;27.18;24.00
44313;BME280;38833;51.142;-0.974;2024-02-26T09:51:33;99201.58;;;26.81;24.11
44313;BME280;38833;51.142;-0.974;2024-02-26T09:54:09;99210.29;;;26.62;24.02
44313;BME280;38833;51.142;-0.974;2024-02-26T09:56:43;99203.79;;;26.74;24.08
44313;BME280;38833;51.142;-0.974;2024-02-26T09:59:20;99204.74;;;26.94;24.02
44313;BME280;38833;51.142;-0.974;2024-02-26T10:01:53;99212.37;;;26.74;23.86
44313;BME280;38833;51.142;-0.974;2024-02-26T10:04:27;99216.75;;;26.50;24.11
44313;BME280;38833;51.142;-0.974;2024-02-26T10:07:01;99214.45;;;26.91;23.85
44313;BME280;38833;51.142;-0.974;2024-02-26T10:09:35;99231.32;;;26.55;23.99
44313;BME280;38833;51.142;-0.974;2024-02-26T10:12:11;99237.20;;;26.59;23.92
44313;BME280;38833;51.142;-0.974;2024-02-26T10:14:44;99236.88;;;26.72;23.95
44313;BME280;38833;51.142;-0.974;2024-02-26T10:17:18;99243.41;;;26.78;23.85
44313;BME280;38833;51.142;-0.974;2024-02-26T10:19:52;99251.31;;;26.85;23.62
44313;BME280;38833;51.142;-0.974;2024-02-26T10:22:27;99249.08;;;26.46;23.69
44313;BME280;38833;51.142;-0.974;2024-02-26T10:25:01;99250.91;;;26.39;23.80
44313;BME280;38833;51.142;-0.974;2024-02-26T10:27:34;99258.24;;;26.59;23.81
44313;BME280;38833;51.142;-0.974;2024-02-26T10:30:16;99255.85;;;26.38;23.67
44313;BME280;38833;51.142;-0.974;2024-02-26T10:32:50;99261.33;;;26.39;23.65
44313;BME280;38833;51.142;-0.974;2024-02-26T10:35:24;99267.64;;;26.54;23.72
44313;BME280;38833;51.142;-0.974;2024-02-26T10:37:58;99278.24;;;26.25;23.82
44313;BME280;38833;51.142;-0.974;2024-02-26T10:40:31;99285.64;;;26.10;23.87
44313;BME280;38833;51.142;-0.974;2024-02-26T10:43:04;99297.96;;;26.15;23.78
44313;BME280;38833;51.142;-0.974;2024-02-26T10:45:38;99300.43;;;26.07;23.75
44313;BME280;38833;51.142;-0.974;2024-02-26T10:48:14;99308.96;;;26.33;23.77
44313;BME280;38833;51.142;-0.974;2024-02-26T10:50:47;99307.05;;;26.37;23.70
44313;BME280;38833;51.142;-0.974;2024-02-26T10:53:22;99317.96;;;26.32;23.54
44313;BME280;38833;51.142;-0.974;2024-02-26T10:56:00;99319.87;;;26.24;23.72
44313;BME280;38833;51.142;-0.974;2024-02-26T10:58:34;99327.74;;;26.22;23.59
44313;BME280;38833;51.142;-0.974;2024-02-26T11:01:09;99333.77;;;26.16;23.65
44313;BME280;38833;51.142;-0.974;2024-02-26T11:03:43;99338.82;;;25.89;23.54
44313;BME280;38833;51.142;-0.974;2024-02-26T11:06:17;99342.39;;;26.10;23.48
44313;BME280;38833;51.142;-0.974;2024-02-26T11:08:51;99348.60;;;26.10;23.70
44313;BME280;38833;51.142;-0.974;2024-02-26T11:11:26;99352.59;;;26.10;23.44
44313;BME280;38833;51.142;-0.974;2024-02-26T11:14:01;99363.90;;;25.85;23.86
44313;BME280;38833;51.142;-0.974;2024-02-26T11:16:35;99365.49;;;25.94;23.64
44313;BME280;38833;51.142;-0.974;2024-02-26T11:19:11;99368.78;;;25.99;23.36
44313;BME280;38833;51.142;-0.974;2024-02-26T11:21:45;99371.88;;;25.94;23.35
44313;BME280;38833;51.142;-0.974;2024-02-26T11:24:18;99388.69;;;25.89;23.36
44313;BME280;38833;51.142;-0.974;2024-02-26T11:26:54;99387.71;;;26.05;23.43
44313;BME280;38833;51.142;-0.974;2024-02-26T11:29:33;99381.00;;;26.09;23.32
44313;BME280;38833;51.142;-0.974;2024-02-26T11:32:07;99393.06;;;25.82;23.46
44313;BME280;38833;51.142;-0.974;2024-02-26T11:34:41;99400.81;;;26.25;23.49
44313;BME280;38833;51.142;-0.974;2024-02-26T11:37:17;99411.76;;;25.62;23.65
44313;BME280;38833;51.142;-0.974;2024-02-26T11:39:51;99418.65;;;25.85;23.61
44313;BME280;38833;51.142;-0.974;2024-02-26T11:42:25;99425.10;;;25.61;23.57
44313;BME280;38833;51.142;-0.974;2024-02-26T11:44:58;99427.47;;;25.63;23.62
44313;BME280;38833;51.142;-0.974;2024-02-26T11:47:35;99432.08;;;25.26;23.61
44313;BME280;38833;51.142;-0.974;2024-02-26T11:50:42;99435.20;;;25.55;23.44
44313;BME280;38833;51.142;-0.974;2024-02-26T11:53:20;99442.70;;;25.83;23.70
44313;BME280;38833;51.142;-0.974;2024-02-26T11:56:26;99439.24;;;25.41;23.61
44313;BME280;38833;51.142;-0.974;2024-02-26T11:59:01;99438.01;;;25.34;23.67
44313;BME280;38833;51.142;-0.974;2024-02-26T12:01:37;99444.54;;;25.58;23.61
44313;BME280;38833;51.142;-0.974;2024-02-26T12:04:16;99441.25;;;25.44;23.87
44313;BME280;38833;51.142;-0.974;2024-02-26T12:06:52;99437.10;;;25.33;23.87
44313;BME280;38833;51.142;-0.974;2024-02-26T12:09:34;99445.12;;;25.24;23.95
44313;BME280;38833;51.142;-0.974;2024-02-26T12:12:10;99440.14;;;25.11;24.17
44313;BME280;38833;51.142;-0.974;2024-02-26T12:14:52;99444.36;;;25.38;24.08
44313;BME280;38833;51.142;-0.974;2024-02-26T12:17:26;99452.39;;;25.07;24.06
44313;BME280;38833;51.142;-0.974;2024-02-26T12:20:09;99453.21;;;25.23;24.15
44313;BME280;38833;51.142;-0.974;2024-02-26T12:22:45;99459.94;;;24.72;24.32
44313;BME280;38833;51.142;-0.974;2024-02-26T12:25:22;99462.97;;;25.17;24.21
44313;BME280;38833;51.142;-0.974;2024-02-26T12:27:56;99463.18;;;25.14;24.19
44313;BME280;38833;51.142;-0.974;2024-02-26T12:30:31;99464.79;;;25.15;23.98
44313;BME280;38833;51.142;-0.974;2024-02-26T12:33:04;99477.72;;;24.99;24.29
44313;BME280;38833;51.142;-0.974;2024-02-26T12:35:38;99473.15;;;24.71;24.07
44313;BME280;38833;51.142;-0.974;2024-02-26T12:38:12;99478.27;;;24.93;23.80
44313;BME280;38833;51.142;-0.974;2024-02-26T12:40:45;99482.71;;;25.17;23.88
44313;BME280;38833;51.142;-0.974;2024-02-26T12:43:19;99478.82;;;25.01;23.59
44313;BME280;38833;51.142;-0.974;2024-02-26T12:45:52;99478.54;;;24.74;24.00
44313;BME280;38833;51.142;-0.974;2024-02-26T12:48:26;99487.26;;;25.15;24.24
44313;BME280;38833;51.142;-0.974;2024-02-26T12:50:59;99490.38;;;24.98;24.43
44313;BME280;38833;51.142;-0.974;2024-02-26T12:53:33;99500.16;;;24.60;24.48
44313;BME280;38833;51.142;-0.974;2024-02-26T12:56:08;99510.10;;;23.87;24.67
44313;BME280;38833;51.142;-0.974;2024-02-26T12:58:42;99509.13;;;24.08;24.85
44313;BME280;38833;51.142;-0.974;2024-02-26T13:01:19;99503.00;;;23.79;25.32
44313;BME280;38833;51.142;-0.974;2024-02-26T13:03:54;99518.43;;;23.98;25.18
44313;BME280;38833;51.142;-0.974;2024-02-26T13:06:28;99521.74;;;24.20;25.00
44313;BME280;38833;51.142;-0.974;2024-02-26T13:09:01;99528.50;;;23.91;24.88
44313;BME280;38833;51.142;-0.974;2024-02-26T13:11:35;99541.07;;;24.29;24.73
44313;BME280;38833;51.142;-0.974;2024-02-26T13:14:19;99534.99;;;24.72;24.61
44313;BME280;38833;51.142;-0.974;2024-02-26T13:16:56;99534.63;;;24.47;24.38
44313;BME280;38833;51.142;-0.974;2024-02-26T13:19:29;99549.27;;;24.83;24.13
44313;BME280;38833;51.142;-0.974;2024-02-26T13:22:05;99554.84;;;24.44;24.40
44313;BME280;38833;51.142;-0.974;2024-02-26T13:24:38;99550.33;;;24.44;24.50